Terminal Aerodrome Forecast
Issued by NWS

Home | Current Version | Previous Version | Text Only | Print | Product List | Glossary On
Versions: 1 2 3 4 5 6 7 8 9 10 11 12 13 14 15 16
000
FTUS46 KSGX 021720
TAFONT
TAF
KONT 021720Z 0218/0324 VRB06KT P6SM SCT020 SCT250
     FM022100 25012KT P6SM SCT250
     FM030600 VRB05KT P6SM SCT018
     FM030700 VRB04KT P6SM OVC018
     FM031700 VRB05KT P6SM FEW020 FEW250
     FM032100 25012KT P6SM FEW250=

USA.gov is the U.S. government's official web portal to all federal, state and local government web resources and services.